Time;durP1;ratioP1;P1;durP2;ratioP2;P2;SDS_P1;SDS_P2;PMS_P1;PMS_P2;Temp;Humidity;BMP_temperature;BMP_pressure;BME280_temperature;BME280_humidity;BME280_pressure;Samples;Min_cycle;Max_cycle;Signal;HPM_P1;HPM_P2
2021/07/25 00:01:50;;;;;;;5.50;3.55;;;;;;;14.37;100.00;100898.76;1727873;82;21030;-83
2021/07/25 00:04:16;;;;;;;5.05;2.92;;;;;;;14.35;100.00;100898.23;1737820;82;21067;-83
2021/07/25 00:06:44;;;;;;;6.28;3.58;;;;;;;14.28;100.00;100895.02;1739285;82;21091;-83
2021/07/25 00:09:10;;;;;;;5.53;3.37;;;;;;;14.25;100.00;100895.05;1734689;82;21134;-83
2021/07/25 00:11:37;;;;;;;4.90;3.37;;;;;;;14.24;100.00;100899.45;1718829;82;21070;-83
2021/07/25 00:14:04;;;;;;;6.92;3.25;;;;;;;14.22;100.00;100898.39;1743460;82;21055;-83
2021/07/25 00:16:33;;;;;;;6.50;3.10;;;;;;;14.22;100.00;100897.02;1718936;82;21032;-84
2021/07/25 00:18:59;;;;;;;7.25;3.45;;;;;;;14.22;100.00;100892.89;1713715;83;21572;-82
2021/07/25 00:21:26;;;;;;;5.22;2.90;;;;;;;14.24;100.00;100896.14;1714883;82;21071;-83
2021/07/25 00:23:55;;;;;;;5.10;3.30;;;;;;;14.24;100.00;100900.83;1686380;83;21075;-84
2021/07/25 00:26:25;;;;;;;3.98;2.83;;;;;;;14.24;100.00;100900.27;1715676;82;21067;-84
2021/07/25 00:28:50;;;;;;;6.08;3.00;;;;;;;14.22;100.00;100896.17;1713400;83;21070;-84
2021/07/25 00:31:16;;;;;;;6.62;3.50;;;;;;;14.16;100.00;100895.42;1714242;82;21597;-84
2021/07/25 00:33:43;;;;;;;4.50;2.90;;;;;;;14.12;100.00;100889.70;1717302;82;21130;-84
2021/07/25 00:36:10;;;;;;;4.85;2.75;;;;;;;14.11;100.00;100896.29;1743063;82;21067;-84
2021/07/25 00:38:36;;;;;;;5.03;3.30;;;;;;;14.11;100.00;100889.98;1732684;82;21055;-84
2021/07/25 00:41:14;;;;;;;7.45;3.50;;;;;;;14.11;100.00;100892.17;1713668;83;21043;-84
2021/07/25 00:43:41;;;;;;;5.37;3.20;;;;;;;14.12;100.00;100906.19;1714611;82;21075;-83
2021/07/25 00:46:07;;;;;;;3.60;2.83;;;;;;;14.10;100.00;100896.04;1714152;82;21075;-85
2021/07/25 00:48:35;;;;;;;5.87;2.85;;;;;;;14.08;100.00;100896.88;1713641;83;21134;-84
2021/07/25 00:51:05;;;;;;;5.30;2.95;;;;;;;14.07;100.00;100892.52;1716057;82;21083;-84
2021/07/25 00:53:36;;;;;;;6.87;3.72;;;;;;;14.08;100.00;100894.70;1743783;82;21052;-83
2021/07/25 00:56:03;;;;;;;5.42;3.37;;;;;;;14.06;100.00;100900.47;1704338;83;21668;-83
2021/07/25 00:58:30;;;;;;;7.95;3.30;;;;;;;14.07;100.00;100903.50;1714356;82;21066;-84
2021/07/25 01:00:57;;;;;;;7.70;3.60;;;;;;;14.08;100.00;100901.00;1713831;83;21115;-83
2021/07/25 01:03:51;;;;;;;5.97;3.83;;;;;;;14.07;100.00;100898.01;1743451;82;21094;-83
2021/07/25 01:06:47;;;;;;;5.30;3.00;;;;;;;14.07;100.00;100899.91;1692112;83;21022;-83
2021/07/25 01:09:26;;;;;;;5.58;3.22;;;;;;;14.02;100.00;100893.95;1720731;83;21536;-83
2021/07/25 01:11:56;;;;;;;5.92;3.58;;;;;;;13.98;100.00;100901.13;1726319;83;21052;-84
2021/07/25 01:14:32;;;;;;;5.03;3.25;;;;;;;13.94;100.00;100896.75;1717343;83;21065;-83
2021/07/25 01:17:31;;;;;;;5.25;3.00;;;;;;;13.91;100.00;100891.03;1727002;81;21024;-84
2021/07/25 01:20:00;;;;;;;3.92;3.22;;;;;;;13.88;100.00;100890.24;1725401;82;21028;-83
2021/07/25 01:22:29;;;;;;;10.10;3.20;;;;;;;13.84;100.00;100887.24;1750821;82;21058;-84
2021/07/25 01:24:55;;;;;;;6.20;3.55;;;;;;;13.82;100.00;100891.39;1751576;82;21643;-83
2021/07/25 01:27:50;;;;;;;7.78;3.30;;;;;;;13.81;100.00;100884.27;1738773;82;21049;-83
2021/07/25 01:30:22;;;;;;;11.63;4.12;;;;;;;13.79;100.00;100893.35;1720946;83;21030;-84
2021/07/25 01:32:53;;;;;;;;;;;;;;;13.78;100.00;100895.84;1736177;82;21093;-83
2021/07/25 01:35:21;;;;;;;7.40;3.70;;;;;;;13.75;100.00;100890.38;1749403;81;20228;-83
2021/07/25 01:37:47;;;;;;;6.22;3.35;;;;;;;13.71;100.00;100894.80;1720920;82;21073;-84
2021/07/25 01:40:20;;;;;;;6.37;3.62;;;;;;;13.66;100.00;100892.11;1721056;82;21515;-83
2021/07/25 01:42:47;;;;;;;4.80;2.98;;;;;;;13.62;100.00;100895.97;1750633;82;21057;-84
2021/07/25 01:45:14;;;;;;;5.87;3.40;;;;;;;13.60;100.00;100903.70;1722962;81;21053;-84
2021/07/25 01:47:40;;;;;;;9.73;3.90;;;;;;;13.60;100.00;100903.70;1720979;83;21069;-84
2021/07/25 01:50:08;;;;;;;4.42;3.08;;;;;;;13.58;100.00;100903.73;1721544;82;21619;-83
2021/07/25 01:52:34;;;;;;;7.75;3.95;;;;;;;13.55;100.00;100901.81;1723393;82;21046;-84
2021/07/25 01:55:01;;;;;;;6.28;3.83;;;;;;;13.54;100.00;100907.58;1741395;82;21073;-83
2021/07/25 01:57:27;;;;;;;5.75;3.70;;;;;;;13.51;100.00;100910.35;1711278;83;21069;-83
2021/07/25 01:59:54;;;;;;;4.25;3.30;;;;;;;13.48;100.00;100910.94;1720863;83;21046;-83
2021/07/25 02:02:20;;;;;;;4.78;2.80;;;;;;;13.44;100.00;100919.47;1723766;82;21048;-84
2021/07/25 02:04:49;;;;;;;3.77;3.02;;;;;;;13.39;100.00;100918.70;1720928;83;21104;-84
2021/07/25 02:07:15;;;;;;;6.40;3.80;;;;;;;13.32;100.00;100911.59;1725186;82;21033;-83
2021/07/25 02:09:42;;;;;;;7.12;3.55;;;;;;;13.25;100.00;100919.33;1734571;82;21041;-83
2021/07/25 02:12:09;;;;;;;7.20;3.35;;;;;;;13.21;100.00;100918.81;1721927;82;21043;-84
2021/07/25 02:14:38;;;;;;;5.28;3.50;;;;;;;13.20;100.00;100922.09;1721224;83;21057;-83
2021/07/25 02:17:06;;;;;;;4.92;3.22;;;;;;;13.20;100.00;100919.34;1720661;82;21053;-84
2021/07/25 02:19:32;;;;;;;5.70;3.45;;;;;;;13.20;100.00;100929.50;1726334;83;21051;-84
2021/07/25 02:21:59;;;;;;;5.25;3.40;;;;;;;13.17;100.00;100924.03;1731972;81;21102;-84
2021/07/25 02:24:26;;;;;;;5.67;3.30;;;;;;;13.17;100.00;100928.15;1706013;83;21082;-83
2021/07/25 02:26:52;;;;;;;6.90;3.72;;;;;;;13.18;100.00;100926.22;1726399;82;21062;-84
2021/07/25 02:29:19;;;;;;;7.00;3.35;;;;;;;13.19;100.00;100927.31;1720508;82;21070;-84
2021/07/25 02:31:46;;;;;;;8.23;4.12;;;;;;;13.20;100.00;100928.13;1718840;83;21537;-84
2021/07/25 02:34:12;;;;;;;6.65;3.33;;;;;;;13.21;100.00;100930.60;1719750;83;21043;-84
2021/07/25 02:36:39;;;;;;;5.67;3.20;;;;;;;13.20;100.00;100928.13;1743499;81;21065;-84
2021/07/25 02:39:05;;;;;;;6.17;3.40;;;;;;;13.20;100.00;100931.69;1765685;81;21075;-83
2021/07/25 02:41:32;;;;;;;6.28;3.62;;;;;;;13.22;100.00;100934.97;1762507;81;21036;-84
2021/07/25 02:43:58;;;;;;;5.37;2.98;;;;;;;13.22;100.00;100940.46;1765544;81;21041;-83
2021/07/25 02:46:26;;;;;;;9.00;3.77;;;;;;;13.23;100.00;100938.53;1765435;81;21519;-83
2021/07/25 02:48:52;;;;;;;6.70;3.30;;;;;;;13.26;100.00;100934.68;1742090;81;21128;-83
2021/07/25 02:51:19;;;;;;;5.35;3.80;;;;;;;13.31;100.00;100936.05;1704206;84;21095;-83
2021/07/25 02:53:46;;;;;;;5.67;3.27;;;;;;;13.37;100.00;100942.86;1755045;81;21013;-84
2021/07/25 02:56:13;;;;;;;4.35;3.10;;;;;;;13.40;100.00;100939.54;1766013;81;21072;-84
2021/07/25 02:58:40;;;;;;;5.65;3.15;;;;;;;13.40;100.00;100944.50;1760852;81;20997;-82
2021/07/25 03:01:12;;;;;;;7.67;3.85;;;;;;;13.42;100.00;100942.83;1765558;81;21047;-83
2021/07/25 03:03:39;;;;;;;6.67;3.52;;;;;;;13.45;100.00;100947.20;1761973;81;21583;-83
2021/07/25 03:06:05;;;;;;;7.85;3.75;;;;;;;13.49;100.00;100950.19;1765967;81;21099;-83
2021/07/25 03:08:33;;;;;;;6.85;3.37;;;;;;;13.52;100.00;100945.48;1743211;81;21460;-82
2021/07/25 03:11:01;;;;;;;7.10;3.65;;;;;;;13.58;100.00;100942.98;1720216;83;21170;-83
2021/07/25 03:13:28;;;;;;;5.87;3.52;;;;;;;13.65;100.00;100948.13;1721073;82;21110;-82
2021/07/25 03:15:54;;;;;;;6.80;3.42;;;;;;;13.75;100.00;100945.31;1765275;80;21626;-82
2021/07/25 03:18:21;;;;;;;5.03;3.12;;;;;;;13.86;100.00;100955.64;1746875;81;21005;-82
2021/07/25 03:20:48;;;;;;;5.25;2.85;;;;;;;13.97;100.00;100958.53;1733623;82;21022;-83
2021/07/25 03:23:14;;;;;;;5.53;3.52;;;;;;;14.08;100.00;100959.27;1735246;81;21088;-82
2021/07/25 03:25:41;;;;;;;7.65;3.08;;;;;;;14.18;100.00;100959.16;1756635;81;21096;-82
2021/07/25 03:28:08;;;;;;;6.85;4.00;;;;;;;14.32;100.00;100957.92;1727773;83;21023;-82
2021/07/25 03:30:35;;;;;;;5.75;3.27;;;;;;;14.45;100.00;100964.09;1747531;81;21544;-82
2021/07/25 03:33:01;;;;;;;8.33;3.52;;;;;;;14.58;100.00;100959.84;1728797;81;21036;-82
2021/07/25 03:35:28;;;;;;;4.60;3.17;;;;;;;14.69;100.00;100967.39;1726750;83;21028;-82
2021/07/25 03:37:56;;;;;;;5.05;3.17;;;;;;;14.80;100.00;100963.41;1750883;81;20982;-82
2021/07/25 03:40:28;;;;;;;7.45;4.25;;;;;;;14.92;100.00;100959.67;1757292;81;21009;-82
2021/07/25 03:42:55;;;;;;;5.97;4.10;;;;;;;15.01;100.00;100968.09;1729303;81;21068;-84
2021/07/25 03:45:21;;;;;;;6.85;4.33;;;;;;;15.13;100.00;100969.01;1726817;82;21025;-82
2021/07/25 03:47:48;;;;;;;4.37;3.00;;;;;;;15.24;100.00;100973.27;1727039;83;21049;-83
2021/07/25 03:50:15;;;;;;;6.33;3.42;;;;;;;15.36;100.00;100976.95;1727027;82;21069;-84
2021/07/25 03:52:41;;;;;;;6.22;4.10;;;;;;;15.46;100.00;100972.09;1751029;81;21046;-84
2021/07/25 03:55:09;;;;;;;8.53;3.95;;;;;;;15.60;100.00;100968.56;1757112;81;21053;-82
2021/07/25 03:57:37;;;;;;;4.85;3.65;;;;;;;15.74;100.00;100970.84;1756952;81;21032;-84
2021/07/25 04:00:04;;;;;;;5.95;3.77;;;;;;;15.90;100.00;100970.03;1753821;81;21092;-84
2021/07/25 04:02:33;;;;;;;6.08;3.72;;;;;;;16.04;100.00;100969.48;1732774;81;21053;-83
2021/07/25 04:04:59;;;;;;;10.95;4.20;;;;;;;16.22;100.00;100963.66;1737124;81;21049;-84
2021/07/25 04:07:26;;;;;;;8.58;3.83;;;;;;;16.41;100.00;100966.30;1746409;81;21109;-84
2021/07/25 04:09:54;;;;;;;6.92;4.50;;;;;;;16.58;100.00;100960.75;1750857;81;21045;-83
2021/07/25 04:12:20;;;;;;;6.80;3.22;;;;;;;16.75;100.00;100962.31;1728289;81;21053;-82
2021/07/25 04:14:47;;;;;;;6.03;3.87;;;;;;;16.91;100.00;100965.58;1727111;81;21121;-83
2021/07/25 04:17:14;;;;;;;7.47;4.95;;;;;;;17.10;100.00;100959.93;1739350;81;22275;-83
2021/07/25 04:19:40;;;;;;;6.25;3.52;;;;;;;17.28;100.00;100963.08;1712019;81;21098;-82
2021/07/25 04:22:07;;;;;;;7.62;4.65;;;;;;;17.46;100.00;100965.44;1713971;83;21109;-83
2021/07/25 04:24:33;;;;;;;8.18;4.40;;;;;;;17.61;100.00;100966.44;1701225;84;21113;-84
2021/07/25 04:27:00;;;;;;;7.37;4.08;;;;;;;17.78;100.00;100963.56;1688887;84;21039;-84
2021/07/25 04:29:27;;;;;;;7.35;4.10;;;;;;;17.93;100.00;100965.14;1689307;85;21057;-83
2021/07/25 04:31:54;;;;;;;7.45;4.53;;;;;;;18.04;100.00;100970.64;1688986;85;21535;-85
2021/07/25 04:34:23;;;;;;;7.35;4.05;;;;;;;18.15;100.00;100965.09;1691620;83;21076;-83
2021/07/25 04:36:51;;;;;;;6.10;4.30;;;;;;;18.29;100.00;100973.28;1710939;83;21462;-84
2021/07/25 04:39:18;;;;;;;6.17;4.12;;;;;;;18.44;100.00;100975.61;1719950;82;21543;-83
2021/07/25 04:41:52;;;;;;;7.85;4.42;;;;;;;18.57;100.00;100978.05;1719667;82;21030;-85
2021/07/25 04:44:42;;;;;;;7.78;4.45;;;;;;;18.69;100.00;100970.48;1696508;83;21034;-85
2021/07/25 04:47:12;;;;;;;6.97;4.40;;;;;;;18.83;100.00;100980.89;1715351;83;21006;-85
2021/07/25 04:49:44;;;;;;;7.10;3.95;;;;;;;19.00;100.00;100977.35;1731775;82;21111;-83
2021/07/25 04:52:11;;;;;;;9.80;5.15;;;;;;;19.18;100.00;100976.80;1728727;82;21037;-83
2021/07/25 04:54:39;;;;;;;9.88;4.90;;;;;;;19.38;100.00;100980.06;1713707;82;21400;-85
2021/07/25 04:57:06;;;;;;;8.08;4.80;;;;;;;19.55;100.00;100982.25;1693004;83;20974;-85
2021/07/25 04:59:41;;;;;;;9.25;4.42;;;;;;;19.77;100.00;100987.41;1724462;82;21061;-85
2021/07/25 05:02:10;;;;;;;7.78;4.78;;;;;;;19.96;100.00;100984.28;1696851;83;21077;-85
2021/07/25 05:04:37;;;;;;;7.67;4.87;;;;;;;20.29;98.75;100980.33;1696597;83;21040;-84
2021/07/25 05:07:05;;;;;;;6.85;3.72;;;;;;;20.29;98.75;100980.33;1714447;83;21092;-83
2021/07/25 05:09:32;;;;;;;8.60;4.28;;;;;;;20.49;98.35;100982.13;1711706;83;21005;-83
2021/07/25 05:12:13;;;;;;;6.70;3.50;;;;;;;20.70;96.91;100990.56;1715574;83;21289;-85
2021/07/25 05:15:04;;;;;;;9.38;4.62;;;;;;;20.83;94.97;100979.78;1689546;83;21036;-83
2021/07/25 05:17:47;;;;;;;10.03;3.98;;;;;;;20.98;93.78;100981.97;1668154;85;21016;-84
2021/07/25 05:20:15;;;;;;;9.03;4.33;;;;;;;21.15;92.41;100983.01;1696547;83;22501;-85
2021/07/25 05:22:59;;;;;;;8.13;4.08;;;;;;;21.49;90.70;100986.13;1725807;81;21097;-83
2021/07/25 05:25:26;;;;;;;9.80;3.77;;;;;;;21.49;90.70;100986.13;1724055;82;21101;-83
2021/07/25 05:27:54;;;;;;;8.78;4.90;;;;;;;21.71;91.10;100975.20;1714847;81;21107;-83
2021/07/25 05:30:23;;;;;;;7.97;4.30;;;;;;;21.99;91.50;100984.33;1750641;81;21503;-85
2021/07/25 05:32:50;;;;;;;7.45;4.40;;;;;;;22.22;90.53;100985.55;1707628;82;21079;-85
2021/07/25 05:35:16;;;;;;;8.05;4.55;;;;;;;22.44;89.26;100984.89;1726509;83;22191;-83
2021/07/25 05:37:44;;;;;;;8.45;4.17;;;;;;;22.62;88.75;100980.70;1749618;81;21497;-83
2021/07/25 05:40:13;;;;;;;5.33;3.60;;;;;;;22.74;86.57;100979.31;1726545;83;21044;-84
2021/07/25 05:42:40;;;;;;;8.98;4.65;;;;;;;22.89;85.14;100979.77;1721570;82;21109;-85
2021/07/25 05:45:10;;;;;;;8.05;4.15;;;;;;;23.10;84.26;100981.86;1721182;83;21053;-83
2021/07/25 05:47:37;;;;;;;5.55;4.12;;;;;;;23.29;83.70;100984.59;1675292;84;21073;-86
2021/07/25 05:50:05;;;;;;;11.33;4.72;;;;;;;23.45;81.99;100983.28;1715784;83;21120;-86
2021/07/25 05:52:49;;;;;;;7.45;4.40;;;;;;;23.58;81.75;100988.44;1726383;81;21088;-84
2021/07/25 05:55:32;;;;;;;7.17;4.42;;;;;;;23.71;81.04;100993.37;1726468;82;21046;-86
2021/07/25 05:57:59;;;;;;;8.60;4.53;;;;;;;23.84;81.58;100991.39;1730234;82;20922;-84
2021/07/25 06:00:26;;;;;;;5.03;3.42;;;;;;;24.04;81.05;100991.73;1727787;82;21080;-86
2021/07/25 06:03:00;;;;;;;4.80;3.33;;;;;;;24.19;79.01;100992.13;1739495;82;21005;-85
2021/07/25 06:05:36;;;;;;;7.42;4.08;;;;;;;24.31;76.60;100994.83;1728890;82;21564;-84
2021/07/25 06:08:06;;;;;;;7.97;3.70;;;;;;;24.38;74.02;100993.63;1695379;83;21730;-84
2021/07/25 06:10:34;;;;;;;5.85;3.77;;;;;;;24.43;72.94;100993.91;1757857;81;20919;-85
2021/07/25 06:13:03;;;;;;;7.80;4.30;;;;;;;24.52;72.27;100995.17;1750638;82;21515;-86
2021/07/25 06:15:30;;;;;;;5.47;3.58;;;;;;;24.63;70.25;100986.48;1750878;81;21037;-84
2021/07/25 06:18:02;;;;;;;4.00;3.08;;;;;;;24.71;69.34;100988.86;1750400;82;21049;-85
2021/07/25 06:20:29;;;;;;;7.03;3.85;;;;;;;24.84;68.73;100995.34;1751099;82;21048;-84
2021/07/25 06:22:56;;;;;;;7.60;3.87;;;;;;;25.01;70.25;101001.73;1760872;81;21486;-86
2021/07/25 06:25:29;;;;;;;6.65;3.80;;;;;;;25.19;71.28;101000.16;1741180;81;21032;-84
2021/07/25 06:27:57;;;;;;;8.55;4.37;;;;;;;25.35;70.72;100997.92;1751602;81;21099;-84
2021/07/25 06:30:25;;;;;;;4.97;3.42;;;;;;;25.47;69.34;101004.18;1765866;81;21700;-85
2021/07/25 06:33:09;;;;;;;6.30;3.55;;;;;;;25.59;69.57;101004.59;1765929;81;21415;-86
2021/07/25 06:35:42;;;;;;;5.30;3.50;;;;;;;25.70;68.44;101000.64;1734004;82;21294;-85
2021/07/25 06:38:12;;;;;;;5.17;3.40;;;;;;;25.83;65.78;100997.89;1765583;81;21043;-86
2021/07/25 06:40:42;;;;;;;4.03;3.02;;;;;;;25.90;64.59;101004.25;1763266;81;21063;-86
2021/07/25 06:43:10;;;;;;;;;;;;;;;25.93;63.92;101000.11;1768481;81;20967;-85
2021/07/25 06:45:38;;;;;;;4.95;2.83;;;;;;;26.04;64.68;100998.93;1765584;81;20471;-86
2021/07/25 06:48:07;;;;;;;5.67;3.25;;;;;;;26.14;63.52;100996.91;1765278;81;21048;-86
2021/07/25 06:50:34;;;;;;;4.83;3.47;;;;;;;26.23;63.57;100995.25;1739108;81;21039;-85
2021/07/25 06:53:01;;;;;;;9.05;3.87;;;;;;;26.35;62.40;100999.86;1765075;81;21009;-85
2021/07/25 06:55:28;;;;;;;4.95;3.15;;;;;;;26.41;62.63;100995.58;1766419;81;21036;-86
2021/07/25 06:57:55;;;;;;;6.47;3.60;;;;;;;26.49;62.51;100998.71;1763896;81;21092;-85
2021/07/25 07:00:22;;;;;;;4.33;2.77;;;;;;;26.59;63.32;100993.90;1765536;81;21318;-85
2021/07/25 07:02:55;;;;;;;4.55;3.30;;;;;;;26.71;61.09;100989.28;1765200;81;21032;-85
2021/07/25 07:05:24;;;;;;;5.70;3.65;;;;;;;26.74;58.82;100996.94;1766156;81;21083;-86
2021/07/25 07:07:54;;;;;;;7.35;4.10;;;;;;;26.75;60.38;100997.14;1740582;81;21072;-84
2021/07/25 07:10:23;;;;;;;6.50;3.77;;;;;;;26.79;60.57;100991.00;1735339;82;21107;-84
2021/07/25 07:12:50;;;;;;;4.50;3.60;;;;;;;26.89;59.62;100998.77;1734750;82;21072;-85
2021/07/25 07:15:18;;;;;;;5.37;3.67;;;;;;;26.95;59.78;100991.66;1710728;82;21051;-86
2021/07/25 07:17:44;;;;;;;6.15;3.05;;;;;;;27.14;61.64;100997.72;1735490;82;21037;-86
2021/07/25 07:20:12;;;;;;;4.35;3.17;;;;;;;27.35;60.44;100995.84;1735109;82;21051;-86
2021/07/25 07:22:39;;;;;;;5.12;3.12;;;;;;;27.57;58.80;100998.33;1734704;82;21528;-85
2021/07/25 07:25:07;;;;;;;6.20;3.42;;;;;;;27.71;58.12;100999.67;1735070;82;21357;-85
2021/07/25 07:27:34;;;;;;;4.85;3.50;;;;;;;27.88;58.88;100999.89;1747492;81;21099;-85
2021/07/25 07:30:00;;;;;;;4.12;2.67;;;;;;;28.01;57.63;101001.03;1765391;81;21063;-85
2021/07/25 07:32:27;;;;;;;5.83;3.77;;;;;;;28.16;58.49;100994.34;1752646;81;21510;-86
2021/07/25 07:34:54;;;;;;;4.47;3.02;;;;;;;28.36;58.68;100992.73;1735124;82;21075;-85
2021/07/25 07:37:21;;;;;;;4.33;3.22;;;;;;;28.49;59.99;100995.50;1734838;82;21057;-86
2021/07/25 07:39:47;;;;;;;6.42;3.45;;;;;;;28.55;57.85;100993.13;1710567;82;21132;-85
2021/07/25 07:42:14;;;;;;;3.47;2.77;;;;;;;28.48;57.89;100999.48;1735191;82;21465;-85
2021/07/25 07:44:41;;;;;;;7.35;3.00;;;;;;;28.45;58.49;101003.08;1735103;82;21550;-85
2021/07/25 07:47:08;;;;;;;6.17;3.45;;;;;;;28.36;57.89;101006.77;1734672;82;21081;-85
2021/07/25 07:49:35;;;;;;;5.22;3.50;;;;;;;28.27;57.71;101005.11;1749648;81;21640;-86
2021/07/25 07:52:04;;;;;;;5.80;3.67;;;;;;;28.20;57.23;101003.63;1765677;81;21338;-86
2021/07/25 07:54:30;;;;;;;4.95;3.75;;;;;;;28.17;57.55;101004.41;1767192;81;21011;-86
2021/07/25 07:56:57;;;;;;;4.22;3.20;;;;;;;28.18;56.65;101004.61;1765619;81;21293;-85
2021/07/25 07:59:24;;;;;;;7.33;3.65;;;;;;;28.17;57.10;101005.81;1765367;81;21047;-86
2021/07/25 08:01:51;;;;;;;5.80;3.45;;;;;;;28.13;57.87;101012.59;1765537;81;21005;-84
2021/07/25 08:04:18;;;;;;;6.05;3.92;;;;;;;28.08;58.15;101009.53;1766612;81;21076;-86
2021/07/25 08:06:45;;;;;;;11.18;5.37;;;;;;;27.95;59.00;101011.81;1749097;81;21517;-86
2021/07/25 08:09:13;;;;;;;6.15;3.62;;;;;;;27.88;59.16;101015.94;1686576;82;21092;-85
2021/07/25 08:11:43;;;;;;;7.83;4.22;;;;;;;27.91;59.19;101018.58;1735225;82;21047;-86
2021/07/25 08:14:08;;;;;;;5.95;3.33;;;;;;;27.95;59.62;101009.00;1735184;82;21083;-85
2021/07/25 08:16:35;;;;;;;5.70;3.25;;;;;;;27.97;58.07;101010.84;1735177;82;21099;-86
2021/07/25 08:19:01;;;;;;;6.03;2.98;;;;;;;27.96;59.15;101015.42;1734873;82;21052;-85
2021/07/25 08:21:28;;;;;;;5.60;3.62;;;;;;;28.01;60.00;101021.48;1735311;82;21004;-85
2021/07/25 08:23:55;;;;;;;6.20;3.55;;;;;;;28.14;58.72;101022.05;1735986;81;21587;-85
2021/07/25 08:26:23;;;;;;;5.45;3.87;;;;;;;28.29;58.57;101019.58;1735290;82;21088;-85
2021/07/25 08:28:49;;;;;;;7.05;3.62;;;;;;;28.46;57.84;101024.36;1763614;81;21087;-85
2021/07/25 08:31:16;;;;;;;6.03;3.35;;;;;;;28.62;58.81;101022.09;1765552;81;21076;-86
2021/07/25 08:33:42;;;;;;;8.70;3.33;;;;;;;28.85;57.45;101023.87;1765313;81;21092;-85
2021/07/25 08:36:09;;;;;;;5.12;3.25;;;;;;;28.94;54.18;101020.92;1765730;81;21052;-86
2021/07/25 08:38:37;;;;;;;6.40;3.70;;;;;;;28.88;54.42;101025.32;1766129;81;21043;-85
2021/07/25 08:41:33;;;;;;;5.12;3.35;;;;;;;28.85;56.24;101030.91;1745403;81;21045;-85
2021/07/25 08:44:40;;;;;;;6.87;4.08;;;;;;;28.98;56.73;101032.22;1734828;82;21052;-86
2021/07/25 08:47:23;;;;;;;4.83;3.58;;;;;;;29.24;54.49;101036.81;1735256;82;21075;-84
2021/07/25 08:49:58;;;;;;;4.78;3.02;;;;;;;29.27;54.40;101025.38;1736178;82;21207;-85
2021/07/25 08:52:31;;;;;;;4.42;3.17;;;;;;;29.31;54.90;101026.20;1735121;82;21091;-85
2021/07/25 08:54:59;;;;;;;4.95;3.47;;;;;;;29.34;56.02;101023.40;1734715;82;21052;-84
2021/07/25 08:57:29;;;;;;;5.05;3.62;;;;;;;29.48;56.19;101025.48;1736171;81;21008;-85
2021/07/25 08:59:56;;;;;;;5.60;3.52;;;;;;;29.70;56.36;101022.19;1734497;82;21025;-85
2021/07/25 09:02:28;;;;;;;5.25;3.00;;;;;;;29.87;54.20;101025.44;1735616;82;21506;-85
2021/07/25 09:04:56;;;;;;;5.35;3.72;;;;;;;29.89;52.84;101019.61;1734928;82;22073;-85
2021/07/25 09:07:27;;;;;;;5.60;3.37;;;;;;;29.94;52.73;101024.85;1760073;81;21056;-84
2021/07/25 09:09:57;;;;;;;4.78;3.65;;;;;;;29.92;54.11;101021.66;1765596;81;21104;-85
2021/07/25 09:12:25;;;;;;;5.85;3.72;;;;;;;29.93;50.90;101021.84;1765638;81;21079;-85
2021/07/25 09:14:55;;;;;;;5.37;3.45;;;;;;;29.85;51.98;101020.80;1693634;83;21059;-85
2021/07/25 09:17:21;;;;;;;5.08;3.25;;;;;;;29.86;51.87;101023.23;1735133;82;21013;-85
2021/07/25 09:20:23;;;;;;;4.47;3.10;;;;;;;29.85;51.06;101023.04;1735162;82;20954;-85
2021/07/25 09:22:56;;;;;;;5.15;3.17;;;;;;;29.73;51.87;101019.18;1703737;83;21135;-85
2021/07/25 09:25:30;;;;;;;3.77;3.15;;;;;;;29.67;51.34;101027.19;1720922;83;21068;-84
2021/07/25 09:28:03;;;;;;;5.00;3.30;;;;;;;29.58;51.25;101025.33;1721189;82;21120;-84
2021/07/25 09:30:31;;;;;;;3.77;3.15;;;;;;;29.45;50.24;101019.25;1721999;82;21088;-85
2021/07/25 09:32:57;;;;;;;4.08;2.87;;;;;;;29.28;48.03;101019.97;1720912;83;21048;-84
2021/07/25 09:35:30;;;;;;;3.60;2.62;;;;;;;29.04;48.90;101025.62;1720883;83;21068;-86
2021/07/25 09:38:08;;;;;;;3.33;2.42;;;;;;;28.80;46.54;101030.66;1720707;83;22156;-85
2021/07/25 09:40:37;;;;;;;5.65;2.83;;;;;;;28.51;46.32;101029.63;1717654;83;21038;-85
2021/07/25 09:43:13;;;;;;;4.05;2.42;;;;;;;28.26;49.48;101033.01;1720895;83;21112;-85
2021/07/25 09:45:54;;;;;;;4.22;2.83;;;;;;;28.20;50.01;101032.33;1720851;83;21025;-86
2021/07/25 09:48:35;;;;;;;4.62;2.80;;;;;;;28.15;50.16;101025.05;1722015;82;21104;-85
2021/07/25 09:51:18;;;;;;;4.37;2.65;;;;;;;28.21;51.01;101029.72;1692759;83;21106;-85
2021/07/25 09:53:51;;;;;;;4.20;2.70;;;;;;;28.36;51.22;101027.85;1719304;83;20992;-85
2021/07/25 09:56:24;;;;;;;6.53;2.67;;;;;;;28.63;50.12;101021.49;1720613;83;21053;-85
2021/07/25 09:58:51;;;;;;;3.33;2.52;;;;;;;28.86;49.66;101022.69;1720711;82;21082;-85
2021/07/25 10:01:37;;;;;;;5.22;2.62;;;;;;;29.08;47.63;101027.28;1720829;83;21022;-85
2021/07/25 10:04:21;;;;;;;4.40;2.55;;;;;;;29.18;43.31;101024.33;1715242;83;21584;-84
2021/07/25 10:06:51;;;;;;;2.90;2.15;;;;;;;29.04;44.29;101022.80;1723104;82;21449;-85
2021/07/25 10:09:20;;;;;;;3.10;2.27;;;;;;;28.80;44.36;101025.64;1723698;82;21027;-85
2021/07/25 10:11:55;;;;;;;2.75;2.22;;;;;;;28.57;44.47;101023.86;1704639;83;21056;-85
2021/07/25 10:14:21;;;;;;;2.70;2.02;;;;;;;28.47;43.93;101025.99;1724418;82;20948;-85
2021/07/25 10:16:52;;;;;;;4.62;2.45;;;;;;;28.48;45.25;101026.98;1723406;82;21055;-85
2021/07/25 10:19:29;;;;;;;4.33;2.95;;;;;;;28.45;45.60;101029.18;1723547;83;21419;-85
2021/07/25 10:21:58;;;;;;;3.92;2.40;;;;;;;28.40;45.92;101025.29;1725762;82;21643;-85
2021/07/25 10:24:26;;;;;;;4.20;2.90;;;;;;;28.34;47.20;101027.43;1762097;81;21052;-85
2021/07/25 10:26:53;;;;;;;3.60;2.22;;;;;;;28.26;47.66;101025.98;1747259;82;21059;-85
2021/07/25 10:29:24;;;;;;;4.45;2.67;;;;;;;28.26;47.74;101028.79;1747162;82;21457;-85
2021/07/25 10:31:52;;;;;;;5.75;3.52;;;;;;;28.35;47.95;101028.45;1747241;82;21561;-85
2021/07/25 10:34:24;;;;;;;6.35;3.35;;;;;;;28.52;46.10;101028.44;1737347;82;21111;-85
2021/07/25 10:36:51;;;;;;;8.15;4.25;;;;;;;28.67;46.35;101021.73;1733105;82;21379;-85
2021/07/25 10:39:19;;;;;;;7.22;4.05;;;;;;;28.88;45.81;101024.48;1737143;81;21099;-84
2021/07/25 10:41:47;;;;;;;3.35;2.52;;;;;;;29.08;45.34;101024.47;1746155;82;21063;-85
2021/07/25 10:44:18;;;;;;;6.40;3.72;;;;;;;29.28;44.75;101020.77;1724004;82;21059;-84
2021/07/25 10:46:46;;;;;;;5.15;3.50;;;;;;;29.43;42.83;101024.45;1741695;82;21127;-85
2021/07/25 10:49:17;;;;;;;4.33;3.30;;;;;;;29.48;44.08;101019.86;1718356;82;21566;-84
2021/07/25 10:52:01;;;;;;;6.25;3.27;;;;;;;29.47;42.52;101029.48;1717313;83;22033;-85
2021/07/25 10:54:30;;;;;;;7.53;4.53;;;;;;;29.41;42.64;101026.06;1719317;82;21111;-85
2021/07/25 10:57:06;;;;;;;6.08;3.47;;;;;;;29.40;44.54;101025.23;1735670;82;21075;-85
2021/07/25 10:59:47;;;;;;;6.85;3.87;;;;;;;29.52;42.06;101030.52;1746352;82;21054;-84
2021/07/25 11:02:29;;;;;;;6.45;4.20;;;;;;;29.61;39.08;101026.55;1745034;81;21063;-84
2021/07/25 11:04:59;;;;;;;5.17;2.85;;;;;;;29.62;40.30;101029.55;1747241;81;21083;-85
2021/07/25 11:07:32;;;;;;;7.03;3.60;;;;;;;29.68;41.54;101028.02;1739540;82;21053;-84
2021/07/25 11:10:12;;;;;;;8.58;4.17;;;;;;;29.65;42.18;101032.98;1716328;82;21558;-85
2021/07/25 11:12:54;;;;;;;10.03;5.10;;;;;;;29.58;41.12;101031.76;1718758;82;21103;-85
2021/07/25 11:15:32;;;;;;;6.15;4.05;;;;;;;29.42;41.20;101028.45;1717518;83;21114;-85
2021/07/25 11:18:05;;;;;;;14.58;7.00;;;;;;;29.36;41.68;101034.27;1708858;83;21102;-84
2021/07/25 11:21:00;;;;;;;7.97;4.37;;;;;;;29.38;41.45;101029.06;1739524;82;21561;-85
2021/07/25 11:23:33;;;;;;;5.08;2.90;;;;;;;29.45;39.80;101028.27;1719756;82;21091;-85
2021/07/25 11:25:59;;;;;;;3.05;2.37;;;;;;;29.58;40.00;101024.72;1712812;82;21253;-85
2021/07/25 11:28:42;;;;;;;5.12;3.20;;;;;;;29.71;37.82;101021.58;1740867;81;22340;-85
2021/07/25 11:31:16;;;;;;;5.62;3.77;;;;;;;29.73;38.79;101017.16;1750325;81;21037;-85
2021/07/25 11:33:46;;;;;;;4.12;2.85;;;;;;;29.96;38.20;101018.83;1759088;81;21067;-85
2021/07/25 11:36:18;;;;;;;4.37;2.60;;;;;;;30.15;36.95;101023.31;1753741;81;21036;-85